Currently 64°F in Simi Valley, California, USA
64°F
66°F / 45°F
3 mph W
0.00"
Sunday, February 23, 2020 4:04 PM PST

Simi Valley, California Weather Summary
Last 36 Hours

Temperature Winds Hourly Humidity Dewpoint
Time Report Norm Report Norm Max Gusts Precip. Rpt. Norm Rpt. Norm Pressure
1Sun 04:04 PM  64.1°F  63°F  3 mph W  5 mph  11 mph  0.00"  64%  51%  51°F  44°F  30.23"
Sun 04:00 PM  63.9°F  63°F  7 mph SW  5 mph  11 mph  0.00"  64%  51%  51°F  44°F  30.23"
Sun 03:00 PM  63.7°F  65°F  6 mph W  5 mph  16 mph  0.00"  64%  47%  51°F  43°F  30.24"
Sun 02:00 PM  64.0°F  65°F  7 mph NW  4 mph  17 mph  0.00"  64%  45%  51°F  42°F  30.25"
2Sun 01:31 PM  66.1°F  65°F  5 mph W  5 mph  13 mph  ----  58%  44%  51°F  42°F  30.25"
Sun 01:00 PM  64.1°F  65°F  5 mph SW  4 mph  11 mph  0.00"  61%  44%  50°F  42°F  30.26"
Sun 12:00 PM  64.4°F  64°F  3 mph E  4 mph  9 mph  0.00"  64%  45%  52°F  42°F  30.29"
Sun 11:00 AM  62.0°F  62°F  3 mph SE  4 mph  9 mph  0.00"  69%  48%  51°F  42°F  30.32"
Sun 10:00 AM  58.7°F  59°F  5 mph S  3 mph  8 mph  0.00"  81%  55%  53°F  42°F  30.31"
Sun 09:00 AM  51.8°F  55°F  calm  3 mph  2 mph  0.00"  90%  62%  49°F  41°F  30.30"
Sun 08:00 AM  47.4°F  50°F  calm  2 mph  4 mph  0.00"  91%  67%  45°F  39°F  30.29"
3Sun 07:14 AM  45.4°F  47°F  2 mph NW  2 mph  4 mph  ----  91%  70%  43°F  38°F  30.27"
Sun 07:00 AM  45.7°F  47°F  calm  2 mph  4 mph  0.00"  90%  70%  43°F  37°F  30.27"
Sun 06:00 AM  46.9°F  47°F  calm  2 mph  5 mph  0.00"  90%  70%  44°F  37°F  30.24"
Sun 05:00 AM  48.6°F  47°F  2 mph NW  2 mph  4 mph  0.00"  90%  69%  46°F  37°F  30.22"
Sun 04:00 AM  51.5°F  48°F  calm  2 mph  5 mph  0.00"  88%  69%  48°F  38°F  30.18"
Sun 03:00 AM  52.1°F  48°F  2 mph W  3 mph  4 mph  0.00"  89%  70%  49°F  38°F  30.18"
Sun 02:00 AM  52.7°F  48°F  calm  2 mph  1 mph  0.00"  88%  70%  49°F  38°F  30.19"
Sun 01:00 AM  52.8°F  49°F  calm  2 mph  2 mph  0.00"  87%  69%  49°F  39°F  30.18"
Sun 12:00 AM  52.5°F  49°F  calm  2 mph  5 mph  0.00"  87%  69%  49°F  39°F  30.17"
Sat 11:00 PM  52.8°F  50°F  calm  2 mph  4 mph  0.00"  87%  69%  49°F  40°F  30.16"
Sat 10:00 PM  52.2°F  51°F  calm  2 mph  2 mph  0.00"  87%  68%  48°F  40°F  30.15"
Sat 09:00 PM  52.3°F  52°F  calm  2 mph  4 mph  0.00"  86%  67%  48°F  41°F  30.13"
Sat 08:00 PM  52.9°F  53°F  calm  2 mph  4 mph  0.00"  84%  65%  48°F  41°F  30.11"
Sat 07:00 PM  52.7°F  56°F  3 mph W  2 mph  8 mph  0.00"  84%  63%  48°F  43°F  30.10"
Sat 06:00 PM  53.5°F  58°F  2 mph NW  3 mph  11 mph  0.01"  82%  60%  48°F  44°F  30.08"
Sat 05:00 PM  54.0°F  61°F  3 mph N  4 mph  16 mph  0.01"  85%  54%  49°F  44°F  30.07"
Sat 04:00 PM  55.7°F  63°F  7 mph W  5 mph  15 mph  0.01"  79%  50%  49°F  44°F  30.05"
Sat 03:00 PM  56.4°F  65°F  calm  5 mph  7 mph  0.33"  79%  47%  50°F  43°F  30.03"
Sat 02:00 PM  56.3°F  66°F  3 mph SE  5 mph  11 mph  0.17"  77%  44%  49°F  43°F  30.03"
Sat 01:00 PM  57.2°F  65°F  6 mph S  4 mph  16 mph  0.13"  75%  43%  49°F  41°F  30.03"
Sat 12:00 PM  62.9°F  64°F  6 mph S  4 mph  9 mph  0.00"  55%  44%  46°F  41°F  30.04"
Sat 11:00 AM  63.3°F  62°F  4 mph S  4 mph  9 mph  0.00"  58%  48%  48°F  41°F  30.05"
Sat 10:00 AM  60.9°F  59°F  calm  3 mph  8 mph  0.00"  66%  54%  49°F  42°F  30.07"
Sat 09:00 AM  56.9°F  55°F  3 mph SE  3 mph  8 mph  0.00"  76%  62%  49°F  41°F  30.07"
Sat 08:00 AM  54.4°F  50°F  2 mph E  2 mph  4 mph  0.00"  81%  67%  49°F  39°F  30.06"
Sat 07:00 AM  53.5°F  47°F  calm  2 mph  6 mph  0.00"  82%  69%  48°F  37°F  30.04"
Sat 06:00 AM  52.9°F  47°F  1 mph W  2 mph  5 mph  0.00"  81%  69%  47°F  37°F  30.02"
Sat 05:00 AM  53.5°F  47°F  calm  2 mph  9 mph  0.00"  80%  69%  47°F  37°F  30.01"

  1. Current weather data. No green row appears if the current weather data is also the high or low for the current day.
  2. High temperature for the current day.
  3. Low temperature for the current day.

The Simi Valley, California weather pages are a service of WeatherCurrents.
Copyright ©2020  WeatherCurrents. All rights reserved. - Submit questions and comments - Privacy Policy

This page automatically refreshes every 10 minutes.